createdAt,value
2018-07-26T00:02:09.242Z,25.70
2018-07-26T00:04:36.668Z,32.73
2018-07-26T00:07:04.197Z,41.30
2018-07-26T00:09:31.341Z,27.80
2018-07-26T00:11:58.501Z,31.73
2018-07-26T00:14:25.662Z,18.87
2018-07-26T00:16:52.803Z,19.17
2018-07-26T00:19:19.943Z,21.07
2018-07-26T00:21:47.150Z,18.43
2018-07-26T00:24:14.218Z,21.23
2018-07-26T00:26:41.380Z,15.17
2018-07-26T00:29:08.493Z,11.20
2018-07-26T00:31:35.619Z,18.43
2018-07-26T00:34:02.768Z,16.87
2018-07-26T00:36:29.932Z,21.57
2018-07-26T00:38:57.097Z,13.80
2018-07-26T00:41:24.296Z,22.70
2018-07-26T00:43:51.363Z,14.60
2018-07-26T00:46:18.479Z,20.83
2018-07-26T00:48:45.687Z,15.70
2018-07-26T00:51:12.849Z,20.43
2018-07-26T00:53:39.983Z,25.10
2018-07-26T00:56:07.148Z,25.97
2018-07-26T00:58:34.315Z,25.53
2018-07-26T01:01:01.465Z,26.83
2018-07-26T01:03:28.613Z,18.07
2018-07-26T01:05:55.779Z,13.17
2018-07-26T01:08:22.953Z,14.40
2018-07-26T01:10:50.155Z,20.80
2018-07-26T01:13:17.306Z,13.20
2018-07-26T01:15:44.438Z,19.83
2018-07-26T01:18:11.581Z,19.80
2018-07-26T01:20:38.729Z,15.93
2018-07-26T01:23:05.896Z,12.50
2018-07-26T01:25:33.005Z,12.33
2018-07-26T01:28:00.192Z,20.20
2018-07-26T01:30:27.324Z,19.63
2018-07-26T01:32:54.479Z,17.57
2018-07-26T01:35:21.623Z,15.13
2018-07-26T01:37:48.779Z,22.67
2018-07-26T01:40:15.940Z,15.63
2018-07-26T01:42:54.537Z,21.57
2018-07-26T01:45:21.672Z,17.00
2018-07-26T01:47:48.809Z,22.23
2018-07-26T01:50:15.935Z,12.40
2018-07-26T01:52:43.100Z,18.50
2018-07-26T01:55:10.246Z,12.73
2018-07-26T01:57:37.415Z,12.97
2018-07-26T02:00:05.489Z,19.23
2018-07-26T02:02:32.652Z,15.03
2018-07-26T02:04:59.806Z,9.07
2018-07-26T02:07:26.928Z,12.77
2018-07-26T02:09:54.061Z,13.73
2018-07-26T02:12:21.225Z,9.43
2018-07-26T02:14:48.353Z,9.83
2018-07-26T02:17:15.539Z,8.90
2018-07-26T02:19:42.673Z,12.53
2018-07-26T02:22:09.867Z,11.00
2018-07-26T02:24:37.073Z,9.20
2018-07-26T02:27:04.532Z,11.10
2018-07-26T02:29:31.683Z,7.67
2018-07-26T02:31:58.801Z,8.37
2018-07-26T02:34:25.947Z,11.13
2018-07-26T02:36:53.166Z,11.20
2018-07-26T02:39:20.336Z,8.20
2018-07-26T02:41:47.521Z,7.93
2018-07-26T02:44:14.626Z,9.13
2018-07-26T02:46:41.769Z,8.97
2018-07-26T02:49:08.895Z,10.93
2018-07-26T02:51:36.028Z,8.40
2018-07-26T02:54:03.200Z,9.67
2018-07-26T02:56:30.940Z,11.50
2018-07-26T02:58:58.196Z,14.60
2018-07-26T03:01:25.389Z,9.77
2018-07-26T03:03:52.488Z,12.90
2018-07-26T03:06:19.616Z,11.53
2018-07-26T03:08:46.752Z,10.47
2018-07-26T03:11:13.834Z,13.60
2018-07-26T03:13:40.972Z,17.13
2018-07-26T03:16:08.072Z,11.70
2018-07-26T03:18:35.277Z,16.13
2018-07-26T03:21:02.444Z,9.77
2018-07-26T03:23:29.571Z,18.50
2018-07-26T03:25:56.665Z,10.40
2018-07-26T03:28:23.826Z,19.47
2018-07-26T03:30:50.933Z,18.27
2018-07-26T03:33:18.079Z,18.80
2018-07-26T03:35:45.176Z,23.37
2018-07-26T03:38:12.375Z,8.80
2018-07-26T03:40:39.487Z,12.87
2018-07-26T03:43:06.655Z,16.67
2018-07-26T03:45:33.812Z,17.93
2018-07-26T03:48:00.964Z,13.40
2018-07-26T03:50:28.119Z,13.30
2018-07-26T03:52:55.300Z,18.30
2018-07-26T03:55:22.426Z,9.30
2018-07-26T03:57:49.594Z,9.00
2018-07-26T04:00:16.769Z,10.40
2018-07-26T04:02:43.972Z,11.50
2018-07-26T04:05:11.121Z,21.67
2018-07-26T04:07:38.430Z,17.03
2018-07-26T04:10:05.717Z,14.10
2018-07-26T04:12:32.976Z,12.13
2018-07-26T04:15:00.138Z,10.13
2018-07-26T04:17:27.296Z,15.37
2018-07-26T04:19:54.396Z,9.60
2018-07-26T04:22:21.540Z,11.23
2018-07-26T04:24:48.663Z,11.50
2018-07-26T04:27:15.806Z,9.67
2018-07-26T04:29:42.941Z,10.43
2018-07-26T04:32:10.138Z,9.03
2018-07-26T04:34:37.480Z,8.20
2018-07-26T04:37:04.671Z,10.23
2018-07-26T04:39:31.887Z,9.93
2018-07-26T04:41:59.068Z,9.53
2018-07-26T04:44:26.183Z,11.10
2018-07-26T04:46:53.313Z,8.97
2018-07-26T04:49:20.488Z,10.23
2018-07-26T04:51:47.642Z,10.00
2018-07-26T04:54:14.772Z,14.73
2018-07-26T04:56:41.919Z,9.23
2018-07-26T04:59:09.061Z,8.23
2018-07-26T05:01:36.217Z,9.77
2018-07-26T05:04:03.404Z,10.00
2018-07-26T05:06:30.524Z,12.30
2018-07-26T05:08:57.747Z,9.13
2018-07-26T05:11:24.850Z,9.53
2018-07-26T05:13:51.997Z,9.77
2018-07-26T05:16:19.172Z,9.27
2018-07-26T05:18:46.381Z,9.40
2018-07-26T05:21:13.535Z,9.20
2018-07-26T05:23:40.672Z,10.47
2018-07-26T05:26:07.867Z,9.83
2018-07-26T05:28:35.043Z,10.93
2018-07-26T05:31:02.214Z,12.53
2018-07-26T05:33:29.391Z,10.10
2018-07-26T05:35:56.506Z,8.37
2018-07-26T05:38:23.653Z,8.80
2018-07-26T05:40:50.777Z,10.67
2018-07-26T05:43:17.936Z,9.90
2018-07-26T05:45:45.017Z,10.60
2018-07-26T05:48:12.276Z,10.30
2018-07-26T05:50:39.455Z,9.37
2018-07-26T05:53:06.633Z,10.07
2018-07-26T05:55:33.764Z,9.50
2018-07-26T05:58:00.916Z,14.63
2018-07-26T06:00:28.096Z,10.17
2018-07-26T06:02:55.217Z,8.90
2018-07-26T06:05:22.311Z,7.93
2018-07-26T06:07:49.461Z,8.10
2018-07-26T06:10:16.586Z,8.57
2018-07-26T06:12:43.764Z,8.13
2018-07-26T06:15:12.064Z,8.40
2018-07-26T06:17:39.684Z,6.50
2018-07-26T06:20:08.536Z,6.40
2018-07-26T06:22:35.652Z,7.63
2018-07-26T06:25:03.561Z,6.20
2018-07-26T06:27:30.729Z,7.53
2018-07-26T06:29:57.864Z,8.60
2018-07-26T06:32:25.000Z,8.00
2018-07-26T06:34:52.216Z,9.20
2018-07-26T06:37:19.391Z,9.60
2018-07-26T06:39:46.562Z,6.97
2018-07-26T06:42:13.685Z,7.67
2018-07-26T06:44:40.830Z,8.13
2018-07-26T06:47:08.036Z,7.23
2018-07-26T06:49:35.182Z,7.00
2018-07-26T06:52:02.428Z,7.40
2018-07-26T06:54:29.564Z,6.73
2018-07-26T06:56:56.731Z,6.50
2018-07-26T06:59:23.932Z,7.23
2018-07-26T07:01:51.101Z,4.97
2018-07-26T07:04:18.231Z,6.70
2018-07-26T07:06:45.361Z,5.57
2018-07-26T07:09:12.571Z,6.00
2018-07-26T07:11:40.017Z,5.03
2018-07-26T07:14:07.296Z,5.80
2018-07-26T07:16:34.416Z,9.80
2018-07-26T07:19:01.565Z,5.77
2018-07-26T07:21:28.759Z,8.80
2018-07-26T07:23:55.896Z,5.90
2018-07-26T07:26:23.069Z,10.10
2018-07-26T07:28:50.204Z,6.80
2018-07-26T07:31:17.285Z,5.20
2018-07-26T07:33:44.448Z,7.00
2018-07-26T07:36:11.617Z,5.00
2018-07-26T07:38:38.754Z,9.87
2018-07-26T07:41:06.053Z,4.10
2018-07-26T07:43:33.192Z,4.87
2018-07-26T07:46:00.279Z,5.10
2018-07-26T07:48:27.385Z,5.83
2018-07-26T07:50:54.532Z,5.17
2018-07-26T07:53:21.678Z,4.57
2018-07-26T07:55:48.855Z,4.73
2018-07-26T07:58:16.001Z,3.97
2018-07-26T08:00:43.137Z,4.90
2018-07-26T08:03:10.351Z,4.40
2018-07-26T08:05:37.511Z,6.33
2018-07-26T08:08:04.909Z,4.60
2018-07-26T08:10:32.181Z,5.30
2018-07-26T08:12:59.336Z,5.03
2018-07-26T08:15:26.437Z,4.57
2018-07-26T08:17:53.569Z,6.77
2018-07-26T08:20:20.664Z,4.63
2018-07-26T08:22:47.817Z,5.33
2018-07-26T08:25:15.008Z,5.33
2018-07-26T08:27:42.152Z,6.90
2018-07-26T08:30:10.417Z,5.73
2018-07-26T08:32:38.439Z,4.60
2018-07-26T08:35:05.908Z,5.07
2018-07-26T08:37:33.148Z,7.80
2018-07-26T08:40:00.387Z,5.90
2018-07-26T08:42:27.533Z,3.83
2018-07-26T08:44:54.707Z,4.50
2018-07-26T08:47:21.910Z,4.20
2018-07-26T08:49:49.094Z,5.23
2018-07-26T08:52:16.241Z,7.97
2018-07-26T08:54:43.415Z,7.60
2018-07-26T08:57:10.624Z,5.17
2018-07-26T08:59:37.798Z,4.63
2018-07-26T09:02:05.600Z,4.33
2018-07-26T09:04:32.742Z,7.33
2018-07-26T09:06:59.872Z,6.77
2018-07-26T09:09:27.020Z,4.70
2018-07-26T09:11:54.161Z,5.53
2018-07-26T09:14:21.305Z,4.10
2018-07-26T09:16:48.427Z,5.00
2018-07-26T09:19:15.559Z,5.00
2018-07-26T09:21:42.793Z,4.73
2018-07-26T09:24:09.908Z,5.63
2018-07-26T09:26:37.091Z,5.43
2018-07-26T09:29:04.265Z,5.03
2018-07-26T09:31:31.385Z,5.97
2018-07-26T09:33:58.597Z,6.87
2018-07-26T09:36:25.702Z,5.50
2018-07-26T09:38:52.900Z,5.20
2018-07-26T09:41:20.044Z,5.40
2018-07-26T09:43:47.198Z,5.40
2018-07-26T09:46:14.704Z,5.63
2018-07-26T09:48:42.073Z,6.27
2018-07-26T09:51:09.240Z,5.67
2018-07-26T09:53:36.404Z,5.70
2018-07-26T09:56:03.843Z,5.97
2018-07-26T09:58:30.969Z,5.17
2018-07-26T10:01:03.937Z,6.00
2018-07-26T10:03:31.104Z,5.97
2018-07-26T10:05:58.204Z,6.47
2018-07-26T10:08:25.384Z,7.97
2018-07-26T10:10:52.525Z,5.80
2018-07-26T10:13:19.692Z,5.67
2018-07-26T10:15:46.924Z,5.90
2018-07-26T10:18:14.101Z,6.00
2018-07-26T10:20:41.273Z,9.10
2018-07-26T10:23:08.432Z,6.53
2018-07-26T10:25:36.162Z,5.03
2018-07-26T10:28:03.345Z,6.17
2018-07-26T10:30:30.548Z,6.17
2018-07-26T10:32:57.808Z,5.93
2018-07-26T10:35:24.940Z,10.10
2018-07-26T10:37:52.090Z,6.80
2018-07-26T10:40:19.266Z,7.50
2018-07-26T10:42:46.447Z,8.03
2018-07-26T10:45:13.600Z,6.10
2018-07-26T10:47:40.732Z,6.50
2018-07-26T10:50:08.921Z,5.63
2018-07-26T10:52:36.153Z,5.83
2018-07-26T10:55:06.052Z,5.43
2018-07-26T10:57:33.468Z,5.33
2018-07-26T11:00:00.626Z,5.27
2018-07-26T11:02:27.826Z,4.87
2018-07-26T11:04:54.988Z,5.93
2018-07-26T11:07:22.187Z,6.10
2018-07-26T11:09:49.415Z,5.20
2018-07-26T11:12:16.591Z,4.93
2018-07-26T11:14:43.755Z,5.10
2018-07-26T11:17:11.435Z,5.27
2018-07-26T11:19:38.602Z,7.20
2018-07-26T11:22:05.803Z,10.60
2018-07-26T11:24:33.013Z,5.17
2018-07-26T11:27:00.239Z,5.50
2018-07-26T11:29:27.499Z,7.83
2018-07-26T11:31:54.654Z,5.37
2018-07-26T11:34:21.902Z,7.90
2018-07-26T11:36:49.119Z,4.70
2018-07-26T11:39:16.406Z,5.80
2018-07-26T11:41:43.636Z,7.83
2018-07-26T11:44:10.861Z,5.43
2018-07-26T11:46:37.997Z,4.80
2018-07-26T11:49:05.193Z,5.30
2018-07-26T11:51:32.345Z,5.13
2018-07-26T11:53:59.528Z,9.93
2018-07-26T11:56:26.687Z,5.00
2018-07-26T11:58:53.973Z,5.43
2018-07-26T12:01:21.208Z,4.90
2018-07-26T12:03:48.394Z,6.60
2018-07-26T12:06:15.557Z,4.60
2018-07-26T12:08:42.825Z,4.77
2018-07-26T12:11:10.063Z,4.73
2018-07-26T12:13:37.288Z,4.73
2018-07-26T12:16:04.521Z,5.03
2018-07-26T12:18:31.730Z,4.93
2018-07-26T12:20:58.964Z,5.13
2018-07-26T12:23:26.147Z,6.60
2018-07-26T12:25:53.350Z,4.87
2018-07-26T12:28:20.524Z,4.67
2018-07-26T12:30:47.714Z,7.83
2018-07-26T12:33:14.892Z,5.17
2018-07-26T12:35:42.127Z,7.30
2018-07-26T12:38:09.555Z,5.40
2018-07-26T12:40:36.707Z,5.47
2018-07-26T12:43:03.891Z,5.67
2018-07-26T12:45:31.085Z,5.77
2018-07-26T12:47:58.251Z,6.30
2018-07-26T12:50:25.411Z,5.20
2018-07-26T12:52:52.630Z,6.90
2018-07-26T12:55:19.842Z,5.27
2018-07-26T12:57:47.048Z,5.50
2018-07-26T13:00:15.239Z,6.17
2018-07-26T13:02:42.444Z,5.10
2018-07-26T13:05:09.638Z,5.00
2018-07-26T13:07:36.864Z,5.23
2018-07-26T13:10:05.036Z,5.47
2018-07-26T13:12:32.303Z,5.60
2018-07-26T13:14:59.643Z,5.10
2018-07-26T13:17:26.782Z,5.60
2018-07-26T13:19:53.954Z,4.70
2018-07-26T13:22:21.288Z,5.77
2018-07-26T13:24:49.212Z,5.37
2018-07-26T13:27:16.461Z,5.27
2018-07-26T13:29:43.724Z,5.27
2018-07-26T13:32:10.954Z,5.80
2018-07-26T13:34:38.309Z,5.30
2018-07-26T13:37:05.455Z,5.30
2018-07-26T13:39:32.618Z,6.23
2018-07-26T13:41:59.804Z,4.97
2018-07-26T13:44:27.002Z,6.30
2018-07-26T13:46:54.158Z,5.50
2018-07-26T13:49:21.353Z,6.30
2018-07-26T13:51:48.541Z,4.80
2018-07-26T13:54:15.667Z,5.00
2018-07-26T13:56:42.854Z,5.60
2018-07-26T13:59:09.986Z,6.10
2018-07-26T14:01:37.252Z,5.37
2018-07-26T14:04:04.434Z,5.27
2018-07-26T14:06:31.601Z,6.13
2018-07-26T14:08:58.802Z,5.40
2018-07-26T14:11:25.969Z,5.77
2018-07-26T14:13:53.199Z,5.27
2018-07-26T14:16:20.361Z,7.63
2018-07-26T14:18:47.590Z,4.87
2018-07-26T14:21:14.739Z,5.63
2018-07-26T14:23:41.991Z,5.33
2018-07-26T14:26:10.877Z,5.67
2018-07-26T14:28:38.119Z,5.60
2018-07-26T14:31:05.456Z,5.43
2018-07-26T14:33:32.667Z,5.27
2018-07-26T14:35:59.853Z,4.80
2018-07-26T14:38:27.015Z,5.23
2018-07-26T14:40:54.294Z,5.00
2018-07-26T14:43:21.609Z,5.27
2018-07-26T14:45:48.875Z,6.67
2018-07-26T14:48:16.034Z,5.50
2018-07-26T14:50:43.167Z,5.70
2018-07-26T14:53:10.363Z,5.53
2018-07-26T14:55:37.517Z,6.13
2018-07-26T14:58:04.829Z,6.30
2018-07-26T15:00:32.018Z,5.93
2018-07-26T15:02:59.313Z,4.97
2018-07-26T15:05:26.518Z,5.23
2018-07-26T15:07:53.734Z,5.23
2018-07-26T15:10:20.902Z,5.80
2018-07-26T15:12:48.112Z,5.20
2018-07-26T15:15:15.374Z,5.43
2018-07-26T15:17:42.512Z,4.40
2018-07-26T15:20:09.662Z,5.23
2018-07-26T15:22:36.884Z,5.37
2018-07-26T15:25:05.285Z,5.77
2018-07-26T15:27:32.453Z,6.80
2018-07-26T15:29:59.672Z,5.97
2018-07-26T15:32:26.860Z,5.70
2018-07-26T15:34:54.025Z,6.87
2018-07-26T15:37:21.177Z,6.00
2018-07-26T15:39:48.384Z,6.00
2018-07-26T15:42:15.543Z,6.10
2018-07-26T15:44:42.814Z,5.53
2018-07-26T15:47:10.016Z,5.40
2018-07-26T15:49:37.231Z,6.87
2018-07-26T15:52:04.496Z,5.53
2018-07-26T15:54:31.757Z,4.83
2018-07-26T15:56:58.984Z,4.67
2018-07-26T15:59:26.178Z,5.30
2018-07-26T16:01:53.351Z,5.60
2018-07-26T16:04:20.543Z,11.43
2018-07-26T16:06:47.689Z,6.20
2018-07-26T16:09:14.907Z,8.80
2018-07-26T16:11:42.168Z,5.60
2018-07-26T16:14:10.478Z,6.83
2018-07-26T16:16:37.766Z,6.70
2018-07-26T16:19:05.001Z,5.53
2018-07-26T16:21:32.161Z,6.10
2018-07-26T16:23:59.400Z,6.67
2018-07-26T16:26:26.593Z,6.53
2018-07-26T16:28:53.753Z,8.83
2018-07-26T16:31:20.894Z,6.23
2018-07-26T16:33:48.052Z,7.80
2018-07-26T16:36:15.232Z,6.17
2018-07-26T16:38:42.397Z,8.83
2018-07-26T16:41:09.616Z,5.80
2018-07-26T16:43:36.754Z,6.83
2018-07-26T16:46:04.180Z,6.50
2018-07-26T16:48:31.374Z,6.03
2018-07-26T16:50:58.506Z,7.23
2018-07-26T16:53:25.693Z,6.93
2018-07-26T16:55:52.905Z,7.87
2018-07-26T16:58:20.151Z,13.03
2018-07-26T17:00:47.357Z,7.03
2018-07-26T17:03:14.585Z,6.27
2018-07-26T17:05:41.774Z,7.27
2018-07-26T17:08:08.872Z,6.83
2018-07-26T17:10:36.067Z,7.97
2018-07-26T17:13:03.306Z,7.27
2018-07-26T17:15:30.523Z,7.17
2018-07-26T17:17:57.739Z,8.37
2018-07-26T17:20:24.994Z,7.47
2018-07-26T17:22:52.240Z,7.60
2018-07-26T17:25:23.598Z,8.13
2018-07-26T17:27:50.974Z,6.97
2018-07-26T17:30:18.143Z,8.40
2018-07-26T17:32:45.436Z,7.43
2018-07-26T17:35:12.687Z,7.57
2018-07-26T17:37:39.881Z,7.40
2018-07-26T17:40:07.143Z,6.80
2018-07-26T17:42:34.260Z,8.83
2018-07-26T17:45:01.505Z,8.70
2018-07-26T17:47:28.628Z,8.73
2018-07-26T17:49:55.822Z,9.10
2018-07-26T17:52:22.998Z,7.40
2018-07-26T17:54:50.175Z,7.53
2018-07-26T17:57:17.324Z,14.53
2018-07-26T17:59:44.793Z,7.90
2018-07-26T18:02:11.953Z,8.43
2018-07-26T18:04:39.104Z,8.27
2018-07-26T18:07:06.256Z,7.07
2018-07-26T18:09:33.435Z,8.67
2018-07-26T18:12:00.629Z,8.70
2018-07-26T18:14:27.773Z,6.83
2018-07-26T18:16:54.957Z,8.20
2018-07-26T18:19:22.133Z,7.90
2018-07-26T18:21:49.257Z,8.10
2018-07-26T18:24:16.427Z,8.27
2018-07-26T18:26:43.596Z,7.43
2018-07-26T18:29:10.788Z,8.17
2018-07-26T18:31:38.022Z,10.73
2018-07-26T18:34:05.257Z,6.80
2018-07-26T18:36:32.439Z,7.03
2018-07-26T18:38:59.550Z,7.03
2018-07-26T18:41:26.724Z,7.37
2018-07-26T18:43:54.094Z,7.17
2018-07-26T18:46:21.260Z,6.80
2018-07-26T18:48:48.419Z,8.13
2018-07-26T18:51:16.555Z,7.40
2018-07-26T18:53:43.741Z,6.60
2018-07-26T18:56:11.031Z,6.73
2018-07-26T18:58:38.176Z,7.40
2018-07-26T19:01:05.592Z,8.47
2018-07-26T19:03:32.733Z,7.47
2018-07-26T19:05:59.913Z,6.77
2018-07-26T19:08:27.084Z,6.70
2018-07-26T19:10:54.269Z,6.47
2018-07-26T19:13:21.450Z,7.00
2018-07-26T19:15:48.617Z,6.10
2018-07-26T19:18:15.777Z,7.10
2018-07-26T19:20:42.965Z,6.83
2018-07-26T19:23:10.176Z,7.00
2018-07-26T19:25:37.403Z,6.70
2018-07-26T19:28:04.767Z,6.40
2018-07-26T19:30:32.009Z,6.97
2018-07-26T19:32:59.134Z,6.87
2018-07-26T19:35:26.536Z,6.40
2018-07-26T19:37:53.706Z,5.50
2018-07-26T19:40:20.858Z,12.57
2018-07-26T19:42:48.681Z,6.90
2018-07-26T19:45:16.222Z,6.20
2018-07-26T19:47:43.556Z,6.37
2018-07-26T19:50:10.961Z,7.03
2018-07-26T19:52:38.312Z,6.07
2018-07-26T19:55:08.815Z,6.80
2018-07-26T19:57:35.985Z,5.60
2018-07-26T20:00:04.256Z,6.20
2018-07-26T20:02:31.446Z,5.83
2018-07-26T20:04:58.680Z,6.60
2018-07-26T20:07:26.567Z,6.77
2018-07-26T20:09:53.788Z,7.53
2018-07-26T20:12:21.037Z,5.90
2018-07-26T20:14:48.195Z,6.50
2018-07-26T20:17:15.398Z,6.10
2018-07-26T20:19:42.748Z,6.30
2018-07-26T20:22:10.188Z,6.90
2018-07-26T20:24:37.477Z,6.40
2018-07-26T20:27:04.687Z,5.97
2018-07-26T20:29:31.932Z,6.63
2018-07-26T20:31:59.502Z,5.90
2018-07-26T20:34:26.663Z,5.90
2018-07-26T20:36:53.861Z,6.57
2018-07-26T20:39:21.105Z,6.30
2018-07-26T20:41:48.356Z,6.23
2018-07-26T20:44:15.612Z,7.20
2018-07-26T20:46:42.777Z,7.07
2018-07-26T20:49:09.922Z,6.13
2018-07-26T20:51:37.268Z,13.10
2018-07-26T20:54:04.607Z,7.50
2018-07-26T20:56:31.716Z,6.73
2018-07-26T20:58:58.825Z,7.23
2018-07-26T21:01:26.054Z,7.30
2018-07-26T21:03:53.239Z,6.87
2018-07-26T21:06:20.397Z,6.60
2018-07-26T21:08:47.518Z,8.10
2018-07-26T21:11:14.683Z,8.27
2018-07-26T21:13:42.169Z,7.20
2018-07-26T21:16:09.377Z,7.90
2018-07-26T21:18:36.527Z,6.67
2018-07-26T21:21:03.765Z,7.13
2018-07-26T21:23:30.920Z,8.33
2018-07-26T21:25:58.167Z,7.10
2018-07-26T21:28:25.239Z,7.10
2018-07-26T21:30:52.426Z,7.70
2018-07-26T21:33:19.560Z,7.10
2018-07-26T21:35:46.749Z,8.23
2018-07-26T21:38:13.908Z,7.60
2018-07-26T21:40:41.102Z,6.30
2018-07-26T21:43:08.188Z,11.53
2018-07-26T21:45:35.459Z,8.80
2018-07-26T21:48:02.653Z,7.60
2018-07-26T21:50:29.811Z,8.33
2018-07-26T21:52:57.107Z,7.97
2018-07-26T21:55:24.264Z,7.20
2018-07-26T21:57:51.493Z,7.80
2018-07-26T22:00:18.643Z,12.23
2018-07-26T22:02:45.880Z,7.53
2018-07-26T22:05:12.985Z,7.10
2018-07-26T22:07:40.124Z,8.10
2018-07-26T22:10:07.389Z,7.03
2018-07-26T22:12:34.475Z,8.90
2018-07-26T22:15:01.665Z,7.50
2018-07-26T22:17:28.765Z,7.20
2018-07-26T22:19:55.852Z,13.10
2018-07-26T22:22:23.010Z,8.90
2018-07-26T22:24:50.137Z,8.27
2018-07-26T22:27:17.269Z,9.17
2018-07-26T22:29:44.408Z,7.97
2018-07-26T22:32:11.575Z,7.60
2018-07-26T22:34:38.730Z,8.07
2018-07-26T22:37:05.958Z,7.63
2018-07-26T22:39:33.092Z,7.90
2018-07-26T22:42:00.249Z,7.97
2018-07-26T22:44:27.345Z,7.50
2018-07-26T22:46:54.524Z,8.70
2018-07-26T22:49:21.643Z,7.67
2018-07-26T22:51:48.813Z,9.90
2018-07-26T22:54:15.931Z,8.73
2018-07-26T22:56:43.102Z,9.20
2018-07-26T22:59:10.221Z,8.17
2018-07-26T23:01:37.380Z,9.37
2018-07-26T23:04:04.608Z,8.27
2018-07-26T23:06:31.801Z,8.50
2018-07-26T23:08:58.989Z,8.33
2018-07-26T23:11:26.144Z,9.17
2018-07-26T23:13:53.344Z,10.17
2018-07-26T23:16:20.516Z,11.77
2018-07-26T23:18:47.677Z,10.87
2018-07-26T23:21:14.837Z,12.47
2018-07-26T23:23:41.912Z,10.13
2018-07-26T23:26:09.100Z,11.13
2018-07-26T23:28:36.197Z,11.77
2018-07-26T23:31:03.372Z,11.00
2018-07-26T23:33:30.485Z,12.43
2018-07-26T23:35:57.648Z,10.93
2018-07-26T23:38:24.759Z,12.30
2018-07-26T23:40:51.871Z,9.70
2018-07-26T23:43:19.019Z,11.83
2018-07-26T23:45:46.140Z,10.93
2018-07-26T23:48:14.517Z,13.73
2018-07-26T23:50:41.696Z,11.60
2018-07-26T23:53:08.827Z,9.63
2018-07-26T23:55:35.976Z,10.57
2018-07-26T23:58:03.113Z,12.27
